Time;durP1;ratioP1;P1;durP2;ratioP2;P2;SDS_P1;SDS_P2;PMS_P1;PMS_P2;Temp;Humidity;BMP_temperature;BMP_pressure;BME280_temperature;BME280_humidity;BME280_pressure;Samples;Min_cycle;Max_cycle;Signal;HPM_P1;HPM_P2
2023/03/15 00:13:39;;;;;;;1.73;0.20;;;3.00;99.90;;;;;;6200545;23;20028;-90
2023/03/15 00:16:05;;;;;;;;;;;3.00;99.90;;;;;;6172004;23;20512;-86
2023/03/15 00:18:31;;;;;;;1.95;0.30;;;2.90;99.90;;;;;;6145757;23;19911;-87
2023/03/15 00:20:57;;;;;;;2.97;0.20;;;2.90;99.90;;;;;;6194679;23;20017;-89
2023/03/15 00:51:54;;;;;;;1.55;0.35;;;2.60;99.90;;;;;;6199000;23;20075;-87
2023/03/15 00:54:22;;;;;;;1.08;0.30;;;2.50;99.90;;;;;;6189027;23;20021;-88
2023/03/15 00:56:48;;;;;;;0.20;0.17;;;2.60;99.90;;;;;;6164882;23;20027;-86
2023/03/15 00:59:14;;;;;;;5.28;0.40;;;2.60;99.90;;;;;;6139335;23;20016;-87
2023/03/15 01:01:43;;;;;;;4.45;0.32;;;2.50;99.90;;;;;;6164589;23;20013;-87
2023/03/15 01:04:10;;;;;;;1.50;0.43;;;2.50;99.90;;;;;;6140475;23;20021;-88
2023/03/15 01:06:51;;;;;;;2.03;0.20;;;2.50;99.90;;;;;;6140282;23;20015;-87
2023/03/15 01:09:17;;;;;;;0.85;0.30;;;2.50;99.90;;;;;;6189452;23;20024;-88
2023/03/15 01:11:43;;;;;;;1.50;0.20;;;2.50;99.90;;;;;;6139912;23;20346;-87
2023/03/15 01:14:09;;;;;;;2.10;0.28;;;2.50;99.90;;;;;;6189121;23;20104;-86
2023/03/15 01:16:35;;;;;;;1.95;0.35;;;2.50;99.90;;;;;;6189250;23;20012;-88
2023/03/15 01:19:01;;;;;;;1.38;0.10;;;2.50;99.90;;;;;;6164593;23;20096;-87
2023/03/15 01:22:13;;;;;;;0.90;0.20;;;2.50;99.90;;;;;;6139660;23;20048;-88
2023/03/15 01:25:13;;;;;;;1.65;0.28;;;2.50;99.90;;;;;;6189589;23;20039;-88
2023/03/15 01:28:03;;;;;;;3.55;0.30;;;2.50;99.90;;;;;;6164979;23;20025;-94
2023/03/15 01:30:29;;;;;;;1.88;0.22;;;2.50;99.90;;;;;;6164734;23;20013;-92
2023/03/15 01:32:55;;;;;;;2.72;0.20;;;2.50;99.90;;;;;;6165423;23;20508;-95
2023/03/15 01:35:23;;;;;;;2.20;0.20;;;2.50;99.90;;;;;;6164972;23;20017;-95
2023/03/15 01:37:52;;;;;;;0.75;0.10;;;2.50;99.90;;;;;;6166208;23;20021;-95
2023/03/15 01:40:20;;;;;;;1.23;0.28;;;2.50;99.90;;;;;;6166807;23;20032;-95
2023/03/15 01:43:18;;;;;;;1.45;0.25;;;2.50;99.90;;;;;;6142725;23;20454;-94
2023/03/15 01:46:02;;;;;;;0.97;0.30;;;2.50;99.90;;;;;;6165954;23;20017;-94
2023/03/15 01:48:43;;;;;;;1.58;0.20;;;2.50;99.90;;;;;;6166621;23;20322;-94
2023/03/15 01:55:34;;;;;;;3.30;0.20;;;2.40;99.90;;;;;;6212175;23;20039;-95
2023/03/15 01:58:01;;;;;;;1.23;0.30;;;2.40;99.90;;;;;;6143955;23;20072;-88
2023/03/15 02:00:27;;;;;;;1.45;0.20;;;2.40;99.90;;;;;;6098000;23;20056;-87
2023/03/15 02:02:58;;;;;;;1.38;0.28;;;2.40;99.90;;;;;;6171424;23;20024;-89
2023/03/15 02:05:28;;;;;;;1.45;0.20;;;2.40;99.90;;;;;;6168735;23;20021;-96
2023/03/15 02:07:54;;;;;;;3.10;0.50;;;2.40;99.90;;;;;;6162582;23;20028;-94
2023/03/15 02:25:39;;;;;;;1.38;0.10;;;2.20;99.90;;;;;;6217807;23;20160;-86
2023/03/15 02:28:08;;;;;;;2.30;0.20;;;2.10;99.90;;;;;;6165543;23;20096;-93
2023/03/15 02:30:34;;;;;;;2.40;0.30;;;2.00;99.90;;;;;;6164937;23;20353;-87
2023/03/15 02:33:04;;;;;;;0.93;0.10;;;2.00;99.90;;;;;;6140849;23;20047;-86
2023/03/15 02:35:32;;;;;;;0.70;0.10;;;2.00;99.90;;;;;;6164982;23;20009;-87
2023/03/15 02:37:58;;;;;;;0.75;0.10;;;1.90;99.90;;;;;;6165020;23;20338;-87
2023/03/15 02:55:56;;;;;;;3.58;0.30;;;1.70;99.90;;;;;;6195519;23;20028;-88
2023/03/15 02:58:22;;;;;;;1.17;0.20;;;1.80;99.90;;;;;;6165214;23;20335;-88
2023/03/15 03:00:48;;;;;;;2.38;0.20;;;1.70;99.90;;;;;;6165288;23;20013;-90
2023/03/15 03:03:14;;;;;;;1.02;0.30;;;1.70;99.90;;;;;;6190103;23;20052;-86
2023/03/15 03:05:40;;;;;;;3.37;0.50;;;1.80;99.90;;;;;;6165118;23;20024;-89
2023/03/15 03:08:05;;;;;;;4.60;0.30;;;1.80;99.90;;;;;;6165521;23;20051;-89
2023/03/15 03:13:57;;;;;;;2.40;0.40;;;1.70;99.90;;;;;;6204738;23;20028;-86
2023/03/15 03:16:23;;;;;;;1.10;0.40;;;1.70;99.90;;;;;;6189825;23;20024;-93
2023/03/15 03:18:50;;;;;;;3.20;0.20;;;1.70;99.90;;;;;;6140709;23;20334;-84
2023/03/15 03:21:15;;;;;;;1.98;0.15;;;1.70;99.90;;;;;;6140751;23;20016;-85
2023/03/15 03:23:44;;;;;;;1.33;0.30;;;1.70;99.90;;;;;;6165094;23;20009;-93
2023/03/15 03:26:16;;;;;;;2.50;0.30;;;1.70;99.90;;;;;;6165518;23;20020;-88
2023/03/15 03:29:10;;;;;;;2.22;0.32;;;1.70;99.90;;;;;;6216582;23;20510;-85
2023/03/15 03:31:59;;;;;;;2.42;0.50;;;1.60;99.90;;;;;;6165916;23;20031;-92
2023/03/15 03:34:25;;;;;;;3.38;0.32;;;1.60;99.90;;;;;;6165641;23;20017;-92
2023/03/15 03:36:51;;;;;;;1.70;0.20;;;1.60;99.90;;;;;;6165709;23;20024;-91
2023/03/15 03:39:16;;;;;;;2.53;0.30;;;1.60;99.90;;;;;;6165712;23;20036;-92
2023/03/15 03:41:42;;;;;;;2.33;0.28;;;1.60;99.90;;;;;;6165642;23;20068;-95
2023/03/15 03:44:08;;;;;;;2.63;0.30;;;1.50;99.90;;;;;;6165892;23;20024;-91
2023/03/15 03:49:14;;;;;;;2.83;0.35;;;1.50;99.90;;;;;;6216484;23;20028;-89
2023/03/15 03:51:40;;;;;;;1.92;0.30;;;1.50;99.90;;;;;;6140840;23;20344;-91
2023/03/15 03:54:06;;;;;;;2.27;0.50;;;1.50;99.90;;;;;;6140846;23;20024;-88
2023/03/15 03:56:31;;;;;;;1.40;0.30;;;1.50;99.90;;;;;;6165464;23;20016;-87
2023/03/15 03:58:57;;;;;;;2.05;0.22;;;1.50;99.90;;;;;;6165251;23;20027;-88
2023/03/15 04:01:23;;;;;;;2.65;0.50;;;1.50;99.90;;;;;;6165161;23;20019;-88
2023/03/15 04:04:27;;;;;;;1.80;0.20;;;1.50;99.90;;;;;;6165666;23;20019;-88
2023/03/15 04:07:13;;;;;;;1.13;0.30;;;1.50;99.90;;;;;;6189975;23;20466;-88
2023/03/15 04:09:40;;;;;;;3.45;0.30;;;1.40;99.90;;;;;;6140393;23;20342;-92
2023/03/15 04:12:06;;;;;;;;;;;1.40;99.90;;;;;;6216735;23;20402;-88
2023/03/15 04:14:32;;;;;;;2.28;0.20;;;1.40;99.90;;;;;;6164962;23;19951;-88
2023/03/15 04:16:58;;;;;;;2.08;0.40;;;1.40;99.90;;;;;;6164850;23;20032;-89
2023/03/15 04:19:24;;;;;;;1.00;0.28;;;1.50;99.90;;;;;;6216284;23;20021;-95
2023/03/15 04:22:05;;;;;;;2.08;0.38;;;1.50;99.90;;;;;;6217205;23;20013;-92
2023/03/15 04:24:34;;;;;;;1.45;0.25;;;1.50;99.90;;;;;;6141085;23;20016;-88
2023/03/15 04:27:01;;;;;;;1.65;0.28;;;1.50;99.90;;;;;;6164628;23;20450;-91
2023/03/15 04:29:27;;;;;;;1.80;0.35;;;1.50;99.90;;;;;;6140295;23;20032;-91
2023/03/15 04:32:00;;;;;;;0.90;0.20;;;1.50;99.90;;;;;;6164886;23;20012;-95
2023/03/15 04:34:27;;;;;;;3.47;0.30;;;1.50;99.90;;;;;;6141551;23;20087;-87
2023/03/15 04:36:53;;;;;;;1.10;0.17;;;1.50;99.90;;;;;;6164701;23;20013;-95
2023/03/15 04:39:19;;;;;;;2.38;0.28;;;1.50;99.90;;;;;;6216088;23;20012;-95
2023/03/15 04:41:45;;;;;;;4.47;0.37;;;1.50;99.90;;;;;;6216173;23;20013;-96
2023/03/15 04:44:10;;;;;;;2.83;0.40;;;1.50;99.90;;;;;;6140079;23;20063;-90
2023/03/15 04:46:36;;;;;;;5.80;0.77;;;1.40;99.90;;;;;;6189781;23;20024;-87
2023/03/15 04:49:03;;;;;;;1.63;0.40;;;1.40;99.90;;;;;;6189480;23;20095;-92
2023/03/15 04:51:29;;;;;;;3.83;0.40;;;1.40;99.90;;;;;;6189636;23;20021;-87
2023/03/15 04:53:55;;;;;;;0.98;0.20;;;1.30;99.90;;;;;;6189489;23;20016;-93
2023/03/15 04:56:21;;;;;;;4.38;0.38;;;1.30;99.90;;;;;;6189529;23;20027;-91
2023/03/15 04:58:46;;;;;;;1.92;0.30;;;1.30;99.90;;;;;;6189360;23;20019;-87
2023/03/15 05:01:12;;;;;;;1.80;0.30;;;1.30;99.90;;;;;;6164853;23;20025;-88
2023/03/15 05:03:37;;;;;;;3.55;0.30;;;1.30;99.90;;;;;;6164718;23;20020;-87
2023/03/15 05:06:06;;;;;;;2.07;0.30;;;1.30;99.90;;;;;;6189507;23;20020;-87
2023/03/15 05:08:35;;;;;;;2.67;0.47;;;1.30;99.90;;;;;;6140942;23;20409;-94
2023/03/15 05:11:04;;;;;;;1.27;0.25;;;1.30;99.90;;;;;;6164666;23;20083;-87
2023/03/15 05:13:30;;;;;;;1.27;0.28;;;1.30;99.90;;;;;;6191211;23;20044;-92
2023/03/15 05:15:56;;;;;;;0.80;0.17;;;1.30;99.90;;;;;;6218054;23;20351;-87
2023/03/15 05:18:22;;;;;;;0.30;0.20;;;1.30;99.90;;;;;;6166681;23;20064;-90
2023/03/15 05:20:48;;;;;;;1.98;0.60;;;1.40;99.90;;;;;;6191230;23;20025;-89
2023/03/15 05:23:14;;;;;;;2.50;0.35;;;1.30;99.90;;;;;;6166924;23;20055;-87
2023/03/15 05:25:41;;;;;;;0.68;0.30;;;1.30;99.90;;;;;;6166844;23;20017;-95
2023/03/15 05:28:06;;;;;;;1.10;0.22;;;1.30;99.90;;;;;;6217894;23;20019;-95
2023/03/15 05:30:32;;;;;;;0.85;0.20;;;1.30;99.90;;;;;;6166772;23;20044;-90
2023/03/15 05:33:13;;;;;;;2.30;0.20;;;1.30;99.90;;;;;;6166953;23;20071;-90
2023/03/15 05:35:39;;;;;;;3.83;0.22;;;1.30;99.90;;;;;;6192925;23;20016;-92
2023/03/15 05:38:05;;;;;;;0.50;0.10;;;1.20;99.90;;;;;;6168019;23;20023;-96
2023/03/15 05:40:31;;;;;;;3.30;0.10;;;1.20;99.90;;;;;;6172454;23;20020;-86
2023/03/15 05:42:58;;;;;;;1.70;0.20;;;1.20;99.90;;;;;;6199717;23;20031;-88
2023/03/15 05:45:23;;;;;;;2.10;0.40;;;1.20;99.90;;;;;;6167837;23;20016;-91
2023/03/15 05:48:36;;;;;;;1.70;0.20;;;1.20;99.90;;;;;;6191377;23;20244;-96
2023/03/15 05:54:40;;;;;;;1.02;0.20;;;1.10;99.90;;;;;;6190993;23;20028;-89
2023/03/15 05:57:06;;;;;;;0.45;0.10;;;1.10;99.90;;;;;;6141685;23;20016;-88
2023/03/15 05:59:32;;;;;;;0.90;0.28;;;1.10;99.90;;;;;;6144395;23;20023;-95
2023/03/15 06:01:58;;;;;;;1.23;0.10;;;1.10;99.90;;;;;;6192162;23;20021;-91
2023/03/15 06:04:40;;;;;;;0.63;0.20;;;1.20;99.90;;;;;;6217860;23;20031;-95
2023/03/15 06:07:05;;;;;;;2.67;0.40;;;1.20;99.90;;;;;;6164950;23;20063;-93
2023/03/15 06:09:31;;;;;;;2.58;0.20;;;1.20;99.90;;;;;;6167208;23;20342;-87
2023/03/15 06:11:57;;;;;;;2.88;0.40;;;1.20;99.90;;;;;;6143240;23;20042;-87
2023/03/15 06:14:25;;;;;;;2.55;0.30;;;1.20;99.90;;;;;;6168775;23;20020;-90
2023/03/15 06:16:51;;;;;;;1.38;0.30;;;1.20;99.90;;;;;;6169384;23;20008;-88
2023/03/15 06:19:26;;;;;;;3.22;0.52;;;1.20;99.90;;;;;;6170152;23;20013;-88
2023/03/15 06:21:52;;;;;;;3.00;0.40;;;1.20;99.90;;;;;;6147372;23;20024;-92
2023/03/15 06:24:46;;;;;;;2.30;0.38;;;1.20;99.90;;;;;;6170405;23;20017;-92
2023/03/15 06:27:12;;;;;;;1.63;0.20;;;1.20;99.90;;;;;;6165975;23;20017;-87
2023/03/15 06:29:38;;;;;;;1.50;0.38;;;1.30;99.90;;;;;;6139291;23;20032;-88
2023/03/15 06:32:04;;;;;;;2.60;0.30;;;1.30;99.90;;;;;;6140055;23;20024;-89
2023/03/15 06:34:29;;;;;;;3.40;0.25;;;1.30;99.90;;;;;;6164290;23;20067;-89
2023/03/15 06:36:55;;;;;;;1.13;0.30;;;1.40;99.90;;;;;;6164878;23;20048;-91
2023/03/15 06:39:53;;;;;;;2.27;0.70;;;1.40;99.90;;;;;;6190182;23;20442;-89
2023/03/15 06:42:53;;;;;;;1.35;0.30;;;1.40;99.90;;;;;;6164846;23;20026;-94
2023/03/15 06:45:19;;;;;;;4.18;0.80;;;1.40;99.90;;;;;;6166253;23;20028;-95
2023/03/15 06:47:45;;;;;;;1.90;0.32;;;1.40;99.90;;;;;;6142726;23;20016;-93
2023/03/15 06:50:48;;;;;;;3.67;0.65;;;1.50;99.90;;;;;;6166312;23;20083;-95
2023/03/15 06:53:38;;;;;;;2.40;0.52;;;1.40;99.90;;;;;;6165917;23;20385;-96
2023/03/15 06:56:08;;;;;;;2.28;0.50;;;1.60;99.90;;;;;;6171317;23;20021;-94
2023/03/15 06:58:37;;;;;;;3.00;0.52;;;1.80;99.90;;;;;;6141144;23;20017;-95
2023/03/15 07:01:03;;;;;;;2.75;0.40;;;2.10;99.90;;;;;;6166259;23;20017;-96
2023/03/15 07:03:31;;;;;;;0.85;0.28;;;2.30;99.90;;;;;;6141912;23;20358;-95
2023/03/15 07:05:59;;;;;;;2.15;0.40;;;2.50;99.90;;;;;;6142415;23;20013;-95
2023/03/15 07:08:25;;;;;;;3.03;0.55;;;2.50;99.90;;;;;;6166056;23;20099;-95
2023/03/15 07:10:52;;;;;;;6.40;1.60;;;2.60;99.90;;;;;;6167320;23;20059;-93
2023/03/15 07:18:28;;;;;;;2.58;0.40;;;2.90;99.90;;;;;;6186113;23;20036;-90
2023/03/15 07:20:58;;;;;;;1.30;0.35;;;3.00;99.90;;;;;;6135772;23;20346;-90
2023/03/15 07:23:52;;;;;;;2.08;0.35;;;3.00;99.90;;;;;;6135902;23;20013;-89
2023/03/15 07:30:06;;;;;;;2.80;0.50;;;3.30;99.90;;;;;;6187156;23;20032;-93
2023/03/15 07:32:31;;;;;;;4.93;0.30;;;3.60;99.90;;;;;;6112685;23;20024;-96
2023/03/15 07:34:59;;;;;;;2.75;0.60;;;3.90;99.90;;;;;;6136848;23;20021;-91
2023/03/15 07:45:06;;;;;;;1.38;0.22;;;4.10;99.90;;;;;;6186455;23;20021;-87
2023/03/15 07:47:32;;;;;;;1.52;0.40;;;4.10;99.90;;;;;;6135611;23;20013;-89
2023/03/15 07:50:16;;;;;;;3.25;0.60;;;4.00;99.90;;;;;;6160974;23;20054;-87
2023/03/15 07:52:42;;;;;;;2.85;0.40;;;4.00;99.90;;;;;;6135666;23;20021;-87
2023/03/15 07:55:08;;;;;;;3.05;0.75;;;3.90;99.90;;;;;;6111024;23;20347;-87
2023/03/15 07:57:34;;;;;;;4.72;0.85;;;3.80;99.90;;;;;;6160045;23;20009;-89
2023/03/15 08:00:00;;;;;;;3.55;0.60;;;3.70;99.90;;;;;;6111175;23;20028;-88
2023/03/15 08:02:26;;;;;;;2.35;0.38;;;3.60;99.90;;;;;;6135841;23;20072;-91
2023/03/15 08:05:19;;;;;;;2.80;0.37;;;3.60;99.90;;;;;;6160327;23;20017;-91
2023/03/15 08:08:16;;;;;;;1.63;0.40;;;3.60;99.90;;;;;;6135480;23;20017;-89
2023/03/15 08:10:43;;;;;;;4.72;0.70;;;3.60;99.90;;;;;;6135548;23;20016;-89
2023/03/15 08:13:11;;;;;;;;;;;3.70;99.90;;;;;;6136567;23;20115;-94
2023/03/15 08:15:37;;;;;;;1.70;0.40;;;3.70;99.90;;;;;;6186298;23;19927;-87
2023/03/15 08:18:03;;;;;;;3.88;0.77;;;3.80;99.90;;;;;;6161665;23;20020;-87
2023/03/15 08:20:44;;;;;;;3.35;0.50;;;3.80;99.90;;;;;;6187819;23;20053;-91
2023/03/15 08:23:15;;;;;;;2.55;0.52;;;3.90;99.90;;;;;;6160403;23;20017;-93
2023/03/15 08:25:42;;;;;;;2.83;0.60;;;3.90;99.90;;;;;;6135412;23;20013;-88
2023/03/15 08:28:26;;;;;;;;;;;3.90;99.90;;;;;;6161174;23;20032;-86
2023/03/15 08:31:13;;;;;;;2.90;0.52;;;4.00;99.90;;;;;;6160023;23;19916;-89
2023/03/15 08:33:39;;;;;;;3.15;0.63;;;4.00;99.90;;;;;;6135500;23;20027;-87
2023/03/15 08:36:05;;;;;;;7.25;0.65;;;4.10;99.90;;;;;;6134265;23;20017;-92
2023/03/15 08:38:36;;;;;;;3.67;0.40;;;4.20;99.90;;;;;;6134837;23;20060;-92
2023/03/15 08:41:02;;;;;;;2.22;0.55;;;4.20;99.90;;;;;;6088256;23;20025;-90
2023/03/15 08:43:37;;;;;;;3.58;0.85;;;4.30;99.90;;;;;;6160087;23;20031;-87
2023/03/15 08:46:03;;;;;;;1.45;0.40;;;4.30;99.90;;;;;;6134391;23;20021;-88
2023/03/15 08:48:30;;;;;;;4.72;0.60;;;4.40;99.90;;;;;;6159015;23;20371;-87
2023/03/15 08:51:01;;;;;;;;;;;4.50;99.90;;;;;;6134540;23;20017;-88
2023/03/15 08:53:51;;;;;;;1.67;0.30;;;4.60;99.90;;;;;;6134799;23;20339;-87
2023/03/15 08:57:13;;;;;;;2.30;0.50;;;4.60;99.90;;;;;;6134836;23;20017;-90
2023/03/15 08:59:39;;;;;;;3.03;0.63;;;4.70;99.90;;;;;;6159557;23;20021;-90
2023/03/15 09:02:10;;;;;;;3.73;0.50;;;4.80;99.90;;;;;;6135144;23;20068;-89
2023/03/15 09:04:36;;;;;;;1.73;0.20;;;4.80;99.90;;;;;;6133928;23;20733;-86
2023/03/15 09:07:01;;;;;;;3.97;0.22;;;4.90;99.90;;;;;;6135040;23;20019;-86
2023/03/15 09:09:27;;;;;;;7.40;0.63;;;5.00;99.90;;;;;;6109972;23;20021;-85
2023/03/15 09:11:55;;;;;;;2.97;0.60;;;5.00;99.90;;;;;;6159279;23;20017;-89
2023/03/15 09:14:39;;;;;;;1.75;0.57;;;5.10;99.90;;;;;;6111860;23;20032;-86
2023/03/15 09:17:05;;;;;;;1.75;0.50;;;5.20;99.90;;;;;;6134745;23;20017;-89
2023/03/15 09:19:31;;;;;;;5.73;0.90;;;5.20;99.90;;;;;;6110694;23;20312;-90
2023/03/15 09:21:56;;;;;;;0.53;0.20;;;5.30;99.90;;;;;;6159050;23;20053;-89
2023/03/15 09:24:56;;;;;;;2.37;0.67;;;5.30;99.90;;;;;;6159148;23;20020;-86
2023/03/15 09:27:49;;;;;;;1.38;0.30;;;5.40;99.90;;;;;;6135056;23;20024;-95
2023/03/15 09:30:15;;;;;;;4.05;0.50;;;5.50;99.90;;;;;;6136157;23;20017;-92
2023/03/15 09:32:42;;;;;;;4.38;0.52;;;5.50;99.90;;;;;;6135297;23;20110;-92
2023/03/15 09:35:11;;;;;;;;;;;5.60;99.90;;;;;;6135771;23;20052;-90
2023/03/15 09:37:37;;;;;;;8.02;0.85;;;5.70;99.90;;;;;;6134848;23;19920;-90
2023/03/15 09:40:07;;;;;;;1.80;0.50;;;5.80;99.90;;;;;;6087829;23;20063;-90
2023/03/15 09:43:10;;;;;;;2.35;0.30;;;5.80;99.90;;;;;;6137016;23;20021;-96
2023/03/15 09:46:16;;;;;;;3.10;0.47;;;5.90;99.90;;;;;;6161229;23;20021;-96
2023/03/15 09:48:48;;;;;;;0.60;0.20;;;6.00;99.90;;;;;;6161664;23;20013;-93
2023/03/15 09:51:50;;;;;;;4.07;0.30;;;6.10;99.90;;;;;;6160126;23;20021;-91
2023/03/15 09:54:26;;;;;;;3.78;0.57;;;6.10;99.90;;;;;;6080104;23;20044;-89
2023/03/15 09:57:01;;;;;;;0.65;0.10;;;6.20;99.90;;;;;;6152247;23;20021;-91
2023/03/15 09:59:43;;;;;;;2.22;0.30;;;6.30;99.90;;;;;;6191848;23;20021;-89
2023/03/15 10:02:25;;;;;;;0.52;0.15;;;6.40;99.90;;;;;;6169403;23;20032;-93
2023/03/15 10:05:06;;;;;;;4.65;0.55;;;6.50;99.90;;;;;;6192874;23;20028;-88
2023/03/15 10:07:33;;;;;;;4.43;0.50;;;6.60;99.90;;;;;;6190918;23;20023;-89
2023/03/15 10:10:00;;;;;;;0.98;0.30;;;6.80;99.90;;;;;;6168110;23;20051;-94
2023/03/15 10:12:54;;;;;;;1.83;0.30;;;6.90;99.90;;;;;;6190068;23;20020;-88
2023/03/15 10:15:43;;;;;;;1.90;0.38;;;6.90;99.90;;;;;;6167365;23;20087;-93
2023/03/15 10:18:41;;;;;;;4.18;0.40;;;7.00;99.90;;;;;;6166933;23;20021;-92
2023/03/15 10:21:15;;;;;;;4.97;0.50;;;7.00;99.90;;;;;;6166684;23;20016;-89
2023/03/15 10:24:28;;;;;;;0.95;0.20;;;7.10;99.90;;;;;;6191403;23;20438;-93
2023/03/15 10:27:34;;;;;;;1.73;0.40;;;7.10;99.90;;;;;;6166020;23;20028;-92
2023/03/15 10:45:27;;;;;;;1.60;0.30;;;7.80;99.90;;;;;;6218480;23;20032;-88
2023/03/15 10:47:53;;;;;;;2.70;0.28;;;8.00;99.90;;;;;;6165900;23;20021;-88
2023/03/15 10:50:27;;;;;;;;;;;8.10;99.90;;;;;;6166230;23;20013;-92
2023/03/15 10:53:42;;;;;;;3.63;0.50;;;8.00;99.90;;;;;;6190460;23;19916;-90
2023/03/15 10:56:34;;;;;;;3.28;0.30;;;7.90;99.90;;;;;;6165586;23;20023;-89
2023/03/15 10:59:00;;;;;;;2.80;0.40;;;8.00;99.90;;;;;;6165242;23;20012;-89
2023/03/15 11:01:33;;;;;;;4.38;0.70;;;8.10;99.90;;;;;;6165690;23;20406;-86
2023/03/15 11:04:14;;;;;;;4.07;0.40;;;8.20;99.90;;;;;;6165936;23;20024;-89
2023/03/15 11:06:54;;;;;;;5.40;0.30;;;8.30;99.90;;;;;;6192847;23;20013;-94
2023/03/15 11:09:22;;;;;;;3.30;0.40;;;8.30;99.90;;;;;;6170968;23;20009;-86
2023/03/15 11:12:14;;;;;;;3.20;0.57;;;8.30;99.90;;;;;;6197365;23;20052;-87
2023/03/15 11:14:46;;;;;;;4.35;0.40;;;8.30;99.90;;;;;;6167698;23;20051;-92
2023/03/15 11:17:22;;;;;;;2.03;0.25;;;8.20;99.90;;;;;;6166023;23;20414;-85
2023/03/15 11:19:58;;;;;;;2.30;0.38;;;8.20;99.90;;;;;;6164324;23;20020;-91
2023/03/15 11:22:42;;;;;;;2.90;0.40;;;8.20;99.90;;;;;;6165515;23;20012;-92
2023/03/15 11:26:01;;;;;;;5.22;0.40;;;8.30;99.90;;;;;;6165381;23;20025;-86
2023/03/15 11:28:31;;;;;;;2.47;0.32;;;8.50;99.90;;;;;;6165871;23;20054;-90
2023/03/15 11:31:13;;;;;;;5.07;0.52;;;8.60;99.90;;;;;;6164172;23;20012;-88
2023/03/15 11:34:01;;;;;;;1.80;0.30;;;8.60;99.90;;;;;;6165018;23;20021;-86
2023/03/15 11:36:34;;;;;;;2.58;0.40;;;8.50;99.90;;;;;;6165021;23;20016;-87
2023/03/15 11:39:03;;;;;;;3.50;0.40;;;8.40;99.90;;;;;;6165419;23;20020;-89
2023/03/15 11:41:39;;;;;;;3.30;0.30;;;8.40;99.90;;;;;;6188801;23;20475;-89
2023/03/15 11:44:27;;;;;;;2.45;0.30;;;8.50;99.90;;;;;;6189660;23;20028;-88
2023/03/15 11:47:10;;;;;;;2.33;0.25;;;8.50;99.90;;;;;;6165468;23;20055;-93
2023/03/15 11:49:49;;;;;;;0.30;0.13;;;8.60;99.90;;;;;;6166146;23;20012;-93
2023/03/15 11:52:16;;;;;;;0.80;0.20;;;8.60;99.90;;;;;;6190896;23;20020;-89
2023/03/15 11:54:44;;;;;;;3.47;0.47;;;8.60;99.90;;;;;;6190532;23;20020;-85
2023/03/15 12:02:55;;;;;;;2.65;0.30;;;8.80;99.90;;;;;;6185072;23;20074;-90
2023/03/15 12:05:49;;;;;;;2.42;0.82;;;8.80;99.40;;;;;;6182659;23;20439;-88
2023/03/15 12:08:36;;;;;;;2.30;0.32;;;8.80;99.10;;;;;;6182533;23;20021;-93
2023/03/15 12:18:12;;;;;;;0.65;0.10;;;8.80;99.00;;;;;;6188362;23;19923;-91
2023/03/15 12:21:06;;;;;;;3.40;0.30;;;8.90;99.90;;;;;;6164721;23;20028;-87
2023/03/15 12:23:40;;;;;;;2.38;0.75;;;9.00;99.30;;;;;;6124765;23;20021;-93
2023/03/15 12:26:12;;;;;;;1.92;0.20;;;9.10;99.90;;;;;;6162696;23;20512;-89
2023/03/15 12:28:44;;;;;;;4.90;0.65;;;9.10;99.80;;;;;;6159491;23;20123;-92
2023/03/15 12:33:57;;;;;;;2.00;0.30;;;9.20;98.90;;;;;;6213858;23;20024;-92
2023/03/15 12:36:46;;;;;;;2.25;0.40;;;9.20;98.80;;;;;;6213173;23;20017;-87
2023/03/15 12:39:15;;;;;;;2.55;0.40;;;9.10;97.00;;;;;;6213839;23;20067;-87
2023/03/15 12:41:47;;;;;;;2.72;0.40;;;9.10;96.60;;;;;;6189855;23;20087;-92
2023/03/15 12:44:42;;;;;;;5.18;0.30;;;9.10;94.60;;;;;;6215198;23;20028;-94
2023/03/15 12:47:11;;;;;;;2.38;0.52;;;9.00;95.40;;;;;;6189137;23;20350;-87
2023/03/15 12:49:42;;;;;;;2.25;0.30;;;8.90;95.90;;;;;;6164868;23;20027;-84
2023/03/15 12:52:14;;;;;;;0.85;0.20;;;8.80;96.90;;;;;;6192633;23;20450;-86
2023/03/15 12:54:51;;;;;;;2.70;0.30;;;8.80;95.80;;;;;;6213509;23;20017;-85
2023/03/15 12:57:37;;;;;;;1.90;0.30;;;8.80;97.00;;;;;;6186688;23;20121;-85
2023/03/15 13:00:34;;;;;;;2.03;0.32;;;8.90;98.40;;;;;;6188927;23;20077;-86
2023/03/15 13:03:33;;;;;;;3.20;0.47;;;8.90;97.80;;;;;;6214915;23;20021;-92
2023/03/15 13:06:17;;;;;;;1.45;0.20;;;9.00;97.30;;;;;;6189680;23;20020;-88
2023/03/15 13:09:10;;;;;;;1.80;0.20;;;9.00;98.40;;;;;;6190507;23;20091;-94
2023/03/15 13:12:20;;;;;;;3.53;0.40;;;9.00;95.60;;;;;;6219523;23;20052;-90
2023/03/15 13:15:10;;;;;;;4.10;0.50;;;9.00;96.40;;;;;;6194881;23;20115;-91
2023/03/15 13:17:56;;;;;;;5.85;0.63;;;9.00;95.20;;;;;;6215982;23;20013;-91
2023/03/15 13:20:48;;;;;;;2.70;0.47;;;8.90;93.60;;;;;;6189259;23;20023;-83
2023/03/15 13:23:26;;;;;;;1.58;0.40;;;8.80;95.50;;;;;;6188666;23;20454;-87
2023/03/15 13:26:10;;;;;;;1.80;0.30;;;8.70;95.90;;;;;;6186942;23;20023;-87
2023/03/15 13:28:41;;;;;;;3.63;0.57;;;8.60;96.30;;;;;;6188605;23;20024;-84
2023/03/15 13:31:33;;;;;;;1.40;0.20;;;8.50;97.80;;;;;;6214615;23;20016;-85
2023/03/15 13:34:20;;;;;;;2.70;0.40;;;8.50;96.50;;;;;;6183781;23;20020;-88
2023/03/15 13:36:57;;;;;;;1.60;0.22;;;8.70;95.50;;;;;;6214768;23;20103;-85
2023/03/15 13:39:26;;;;;;;4.90;0.43;;;8.80;95.50;;;;;;6191270;23;20067;-87
2023/03/15 13:42:05;;;;;;;2.22;0.32;;;8.90;96.40;;;;;;6217162;23;20028;-89
2023/03/15 13:47:07;;;;;;;3.00;0.60;;;8.90;95.50;;;;;;6187056;23;20021;-84
2023/03/15 13:49:33;;;;;;;1.55;0.40;;;8.90;95.30;;;;;;6110704;23;20021;-83
2023/03/15 13:52:04;;;;;;;1.88;0.30;;;8.80;95.10;;;;;;6159007;23;20081;-84
2023/03/15 13:54:32;;;;;;;2.80;0.30;;;8.80;95.30;;;;;;6134361;23;20451;-84
2023/03/15 13:57:02;;;;;;;2.67;0.32;;;8.80;94.60;;;;;;6185527;23;20394;-83
2023/03/15 14:00:22;;;;;;;1.98;0.30;;;8.80;95.50;;;;;;6159359;23;20442;-85
2023/03/15 14:03:12;;;;;;;2.22;0.30;;;8.90;93.90;;;;;;6130384;23;20024;-86
2023/03/15 14:05:55;;;;;;;2.97;0.30;;;8.80;92.30;;;;;;6135379;23;20044;-85
2023/03/15 14:08:27;;;;;;;0.90;0.32;;;8.80;94.40;;;;;;6135854;23;20021;-86
2023/03/15 14:10:57;;;;;;;0.93;0.50;;;8.80;93.30;;;;;;6136277;23;20016;-92
2023/03/15 14:13:54;;;;;;;2.17;0.32;;;8.80;94.20;;;;;;6135793;23;20028;-90
2023/03/15 14:16:50;;;;;;;3.03;0.13;;;8.80;92.50;;;;;;6129105;23;20459;-88
2023/03/15 14:21:54;;;;;;;1.60;0.30;;;8.70;94.80;;;;;;6186828;23;19916;-88
2023/03/15 14:24:29;;;;;;;4.30;0.30;;;8.70;94.50;;;;;;6136748;23;20175;-90
2023/03/15 14:27:15;;;;;;;3.38;0.30;;;8.60;92.70;;;;;;6136862;23;20013;-93
2023/03/15 14:29:53;;;;;;;1.25;0.30;;;8.60;93.00;;;;;;6136927;23;20632;-94
2023/03/15 14:32:28;;;;;;;1.63;0.45;;;8.60;91.40;;;;;;6137047;23;20470;-92
2023/03/15 14:37:35;;;;;;;2.40;0.55;;;8.60;92.20;;;;;;6217301;23;20024;-94
2023/03/15 14:40:20;;;;;;;3.95;0.50;;;8.60;93.60;;;;;;6166370;23;20024;-93
2023/03/15 14:42:48;;;;;;;2.42;0.32;;;8.60;94.20;;;;;;6191437;23;20458;-88
2023/03/15 14:45:16;;;;;;;2.55;0.30;;;8.60;94.50;;;;;;6191035;23;20078;-86
2023/03/15 14:47:48;;;;;;;1.85;0.50;;;8.60;94.80;;;;;;6190858;23;20078;-90
2023/03/15 14:50:39;;;;;;;2.13;0.20;;;8.60;94.60;;;;;;6166364;23;20013;-90
2023/03/15 14:53:33;;;;;;;2.88;0.45;;;8.60;95.30;;;;;;6166733;23;20016;-90
2023/03/15 14:55:58;;;;;;;1.80;0.47;;;8.60;91.70;;;;;;6166446;23;20073;-87
2023/03/15 14:58:24;;;;;;;2.07;0.27;;;8.60;94.20;;;;;;6191001;23;20021;-88
2023/03/15 15:00:52;;;;;;;0.50;0.20;;;8.50;93.20;;;;;;6166084;23;20024;-90
2023/03/15 15:03:34;;;;;;;1.67;0.30;;;8.50;92.30;;;;;;6165789;23;20012;-88
2023/03/15 15:06:09;;;;;;;1.90;0.47;;;8.50;91.10;;;;;;6190169;23;20104;-86
2023/03/15 15:08:38;;;;;;;3.55;0.40;;;8.40;91.60;;;;;;6165262;23;20017;-88
2023/03/15 15:11:07;;;;;;;3.88;0.32;;;8.40;91.70;;;;;;6165553;23;20021;-86
2023/03/15 15:13:33;;;;;;;0.93;0.20;;;8.30;92.50;;;;;;6189953;23;20021;-87
2023/03/15 15:15:59;;;;;;;1.63;0.20;;;8.30;92.90;;;;;;6141058;23;20019;-87
2023/03/15 15:18:27;;;;;;;1.42;0.15;;;8.30;91.70;;;;;;6165471;23;20017;-87
2023/03/15 15:20:55;;;;;;;2.15;0.10;;;8.20;91.40;;;;;;6165839;23;20099;-87
2023/03/15 15:23:33;;;;;;;2.80;0.30;;;8.10;92.90;;;;;;6165619;23;20087;-88
2023/03/15 15:26:02;;;;;;;2.63;0.30;;;8.10;94.00;;;;;;6165402;23;20021;-89
2023/03/15 15:28:30;;;;;;;1.33;0.13;;;8.20;93.20;;;;;;6165523;23;20017;-88
2023/03/15 15:30:56;;;;;;;0.80;0.20;;;8.10;91.80;;;;;;6190195;23;20074;-88
2023/03/15 15:33:22;;;;;;;2.47;0.63;;;8.10;93.00;;;;;;6140680;23;20051;-86
2023/03/15 15:35:53;;;;;;;2.20;0.33;;;8.10;93.10;;;;;;6165089;23;20025;-87
2023/03/15 15:38:21;;;;;;;1.95;0.50;;;8.10;92.90;;;;;;6165019;23;20465;-88
2023/03/15 15:40:46;;;;;;;1.50;0.30;;;8.10;92.60;;;;;;6140990;23;20067;-88
2023/03/15 15:43:13;;;;;;;;;;;8.00;93.20;;;;;;6117360;23;20054;-87
2023/03/15 15:45:39;;;;;;;1.10;0.30;;;8.00;92.80;;;;;;6164926;23;19923;-88
2023/03/15 15:48:05;;;;;;;2.93;0.60;;;8.00;93.40;;;;;;6164742;23;20017;-88
2023/03/15 15:50:32;;;;;;;1.50;0.40;;;7.90;93.40;;;;;;6164993;23;20058;-87
2023/03/15 15:53:00;;;;;;;2.45;0.52;;;7.80;93.70;;;;;;6164778;23;20071;-87
2023/03/15 15:55:30;;;;;;;2.65;0.40;;;7.80;94.30;;;;;;6189461;23;20025;-88
2023/03/15 15:57:56;;;;;;;0.60;0.20;;;7.90;95.40;;;;;;6216562;23;20028;-88